sensor_id;sensor_type;location;lat;lon;timestamp;P1;durP1;ratioP1;P2;durP2;ratioP2
55346;SDS011;41218;55.700;38.270;2023-02-28T00:01:54;3.05;;;1.88;;
55346;SDS011;41218;55.700;38.270;2023-02-28T00:06:54;2.30;;;1.40;;
55346;SDS011;41218;55.700;38.270;2023-02-28T00:11:54;2.13;;;1.15;;
55346;SDS011;41218;55.700;38.270;2023-02-28T00:16:55;1.27;;;1.08;;
55346;SDS011;41218;55.700;38.270;2023-02-28T00:21:56;1.98;;;1.35;;
55346;SDS011;41218;55.700;38.270;2023-02-28T00:26:56;2.15;;;1.05;;
55346;SDS011;41218;55.700;38.270;2023-02-28T00:31:57;2.85;;;1.50;;
55346;SDS011;41218;55.700;38.270;2023-02-28T00:36:57;2.78;;;1.35;;
55346;SDS011;41218;55.700;38.270;2023-02-28T00:41:58;3.03;;;1.45;;
55346;SDS011;41218;55.700;38.270;2023-02-28T00:46:58;4.28;;;2.08;;
55346;SDS011;41218;55.700;38.270;2023-02-28T00:52:00;1.40;;;1.15;;
55346;SDS011;41218;55.700;38.270;2023-02-28T00:57:00;1.60;;;1.17;;
55346;SDS011;41218;55.700;38.270;2023-02-28T01:02:01;1.52;;;1.35;;
55346;SDS011;41218;55.700;38.270;2023-02-28T01:12:02;1.47;;;0.97;;
55346;SDS011;41218;55.700;38.270;2023-02-28T01:17:03;3.20;;;1.17;;
55346;SDS011;41218;55.700;38.270;2023-02-28T01:22:04;2.22;;;1.38;;
55346;SDS011;41218;55.700;38.270;2023-02-28T01:27:06;4.20;;;1.80;;
55346;SDS011;41218;55.700;38.270;2023-02-28T01:32:06;1.63;;;1.27;;
55346;SDS011;41218;55.700;38.270;2023-02-28T01:42:08;1.07;;;0.87;;
55346;SDS011;41218;55.700;38.270;2023-02-28T01:47:09;0.82;;;0.77;;
55346;SDS011;41218;55.700;38.270;2023-02-28T01:52:10;3.20;;;1.52;;
55346;SDS011;41218;55.700;38.270;2023-02-28T01:57:18;2.75;;;1.67;;
55346;SDS011;41218;55.700;38.270;2023-02-28T02:02:24;1.55;;;1.33;;
55346;SDS011;41218;55.700;38.270;2023-02-28T02:07:25;3.05;;;1.52;;
55346;SDS011;41218;55.700;38.270;2023-02-28T02:17:44;2.05;;;1.33;;
55346;SDS011;41218;55.700;38.270;2023-02-28T02:38:50;5.07;;;1.90;;
55346;SDS011;41218;55.700;38.270;2023-02-28T02:49:15;7.03;;;1.88;;
55346;SDS011;41218;55.700;38.270;2023-02-28T02:54:21;2.70;;;1.85;;
55346;SDS011;41218;55.700;38.270;2023-02-28T02:59:28;3.40;;;1.45;;
55346;SDS011;41218;55.700;38.270;2023-02-28T03:04:31;3.83;;;1.88;;
55346;SDS011;41218;55.700;38.270;2023-02-28T03:09:36;1.20;;;1.02;;
55346;SDS011;41218;55.700;38.270;2023-02-28T03:25:17;3.63;;;1.95;;
55346;SDS011;41218;55.700;38.270;2023-02-28T03:30:30;8.13;;;2.92;;
55346;SDS011;41218;55.700;38.270;2023-02-28T03:35:43;5.95;;;2.53;;
55346;SDS011;41218;55.700;38.270;2023-02-28T03:40:50;1.98;;;1.23;;
55346;SDS011;41218;55.700;38.270;2023-02-28T03:45:55;3.38;;;1.10;;
55346;SDS011;41218;55.700;38.270;2023-02-28T03:50:57;1.75;;;1.63;;
55346;SDS011;41218;55.700;38.270;2023-02-28T03:56:08;4.03;;;2.20;;
55346;SDS011;41218;55.700;38.270;2023-02-28T04:01:53;2.55;;;1.45;;
55346;SDS011;41218;55.700;38.270;2023-02-28T04:06:42;5.72;;;1.67;;
55346;SDS011;41218;55.700;38.270;2023-02-28T04:16:49;1.48;;;1.05;;
55346;SDS011;41218;55.700;38.270;2023-02-28T04:21:51;1.40;;;0.73;;
55346;SDS011;41218;55.700;38.270;2023-02-28T04:26:54;1.70;;;0.95;;
55346;SDS011;41218;55.700;38.270;2023-02-28T04:31:56;2.97;;;1.63;;
55346;SDS011;41218;55.700;38.270;2023-02-28T04:37:00;2.47;;;1.63;;
55346;SDS011;41218;55.700;38.270;2023-02-28T04:47:01;0.90;;;0.70;;
55346;SDS011;41218;55.700;38.270;2023-02-28T04:57:02;1.17;;;0.67;;
55346;SDS011;41218;55.700;38.270;2023-02-28T05:02:02;2.00;;;1.35;;
55346;SDS011;41218;55.700;38.270;2023-02-28T05:07:06;2.92;;;1.20;;
55346;SDS011;41218;55.700;38.270;2023-02-28T05:17:08;0.93;;;0.73;;
55346;SDS011;41218;55.700;38.270;2023-02-28T05:22:13;1.05;;;0.80;;
55346;SDS011;41218;55.700;38.270;2023-02-28T05:27:16;3.55;;;1.30;;
55346;SDS011;41218;55.700;38.270;2023-02-28T05:32:17;0.88;;;0.47;;
55346;SDS011;41218;55.700;38.270;2023-02-28T05:42:18;1.60;;;1.13;;
55346;SDS011;41218;55.700;38.270;2023-02-28T05:52:18;1.17;;;1.07;;
55346;SDS011;41218;55.700;38.270;2023-02-28T05:57:19;4.05;;;1.90;;
55346;SDS011;41218;55.700;38.270;2023-02-28T06:02:20;1.10;;;0.90;;
55346;SDS011;41218;55.700;38.270;2023-02-28T06:07:20;3.38;;;1.65;;
55346;SDS011;41218;55.700;38.270;2023-02-28T06:12:22;5.13;;;2.15;;
55346;SDS011;41218;55.700;38.270;2023-02-28T06:17:22;3.88;;;1.80;;
55346;SDS011;41218;55.700;38.270;2023-02-28T06:22:23;3.35;;;1.30;;
55346;SDS011;41218;55.700;38.270;2023-02-28T06:27:23;1.13;;;0.52;;
55346;SDS011;41218;55.700;38.270;2023-02-28T06:32:24;1.40;;;1.05;;
55346;SDS011;41218;55.700;38.270;2023-02-28T06:37:24;4.22;;;1.88;;
55346;SDS011;41218;55.700;38.270;2023-02-28T06:42:26;3.72;;;1.70;;
55346;SDS011;41218;55.700;38.270;2023-02-28T06:47:30;4.35;;;2.13;;
55346;SDS011;41218;55.700;38.270;2023-02-28T06:52:31;1.15;;;0.93;;
55346;SDS011;41218;55.700;38.270;2023-02-28T06:57:32;4.60;;;1.83;;
55346;SDS011;41218;55.700;38.270;2023-02-28T07:02:34;1.33;;;1.20;;
55346;SDS011;41218;55.700;38.270;2023-02-28T07:07:38;2.47;;;1.17;;
55346;SDS011;41218;55.700;38.270;2023-02-28T07:12:40;5.75;;;2.28;;
55346;SDS011;41218;55.700;38.270;2023-02-28T07:17:41;3.30;;;1.80;;
55346;SDS011;41218;55.700;38.270;2023-02-28T07:22:41;2.80;;;1.90;;
55346;SDS011;41218;55.700;38.270;2023-02-28T07:27:42;4.63;;;1.83;;
55346;SDS011;41218;55.700;38.270;2023-02-28T07:32:42;4.22;;;2.10;;
55346;SDS011;41218;55.700;38.270;2023-02-28T07:37:43;4.55;;;1.85;;
55346;SDS011;41218;55.700;38.270;2023-02-28T07:42:44;5.43;;;2.03;;
55346;SDS011;41218;55.700;38.270;2023-02-28T07:47:44;2.83;;;1.67;;
55346;SDS011;41218;55.700;38.270;2023-02-28T07:57:46;3.30;;;1.67;;
55346;SDS011;41218;55.700;38.270;2023-02-28T08:02:46;3.40;;;1.50;;
55346;SDS011;41218;55.700;38.270;2023-02-28T08:07:48;5.13;;;2.47;;
55346;SDS011;41218;55.700;38.270;2023-02-28T08:12:49;5.43;;;2.10;;
55346;SDS011;41218;55.700;38.270;2023-02-28T08:17:50;4.03;;;2.30;;
55346;SDS011;41218;55.700;38.270;2023-02-28T08:22:50;5.07;;;2.53;;
55346;SDS011;41218;55.700;38.270;2023-02-28T08:27:51;5.50;;;2.67;;
55346;SDS011;41218;55.700;38.270;2023-02-28T08:32:53;3.22;;;1.70;;
55346;SDS011;41218;55.700;38.270;2023-02-28T08:42:54;6.97;;;2.30;;
55346;SDS011;41218;55.700;38.270;2023-02-28T08:47:55;5.28;;;2.00;;
55346;SDS011;41218;55.700;38.270;2023-02-28T08:52:55;1.30;;;0.70;;
55346;SDS011;41218;55.700;38.270;2023-02-28T08:57:56;4.43;;;1.03;;
55346;SDS011;41218;55.700;38.270;2023-02-28T09:02:56;3.10;;;1.73;;
55346;SDS011;41218;55.700;38.270;2023-02-28T09:07:57;7.83;;;2.50;;
55346;SDS011;41218;55.700;38.270;2023-02-28T09:12:58;7.07;;;2.63;;
55346;SDS011;41218;55.700;38.270;2023-02-28T09:17:58;4.23;;;1.90;;
55346;SDS011;41218;55.700;38.270;2023-02-28T09:22:59;6.47;;;2.33;;
55346;SDS011;41218;55.700;38.270;2023-02-28T09:27:59;6.82;;;2.72;;
55346;SDS011;41218;55.700;38.270;2023-02-28T09:33:00;7.68;;;2.55;;
55346;SDS011;41218;55.700;38.270;2023-02-28T09:38:01;4.17;;;2.23;;
55346;SDS011;41218;55.700;38.270;2023-02-28T09:43:02;2.70;;;1.40;;
55346;SDS011;41218;55.700;38.270;2023-02-28T09:48:06;5.47;;;2.25;;
55346;SDS011;41218;55.700;38.270;2023-02-28T09:53:35;5.07;;;2.25;;
55346;SDS011;41218;55.700;38.270;2023-02-28T09:58:46;0.75;;;0.52;;
55346;SDS011;41218;55.700;38.270;2023-02-28T10:04:03;2.78;;;1.23;;
55346;SDS011;41218;55.700;38.270;2023-02-28T10:09:07;5.30;;;1.83;;
55346;SDS011;41218;55.700;38.270;2023-02-28T10:14:16;4.38;;;1.92;;
55346;SDS011;41218;55.700;38.270;2023-02-28T10:24:35;3.40;;;1.70;;
55346;SDS011;41218;55.700;38.270;2023-02-28T10:29:40;6.35;;;1.65;;
55346;SDS011;41218;55.700;38.270;2023-02-28T10:34:44;3.08;;;1.48;;
55346;SDS011;41218;55.700;38.270;2023-02-28T10:39:46;2.70;;;1.58;;
55346;SDS011;41218;55.700;38.270;2023-02-28T10:44:47;4.00;;;2.03;;
55346;SDS011;41218;55.700;38.270;2023-02-28T10:49:48;5.03;;;2.20;;
55346;SDS011;41218;55.700;38.270;2023-02-28T10:54:50;3.83;;;1.50;;
55346;SDS011;41218;55.700;38.270;2023-02-28T11:00:18;6.35;;;2.20;;
55346;SDS011;41218;55.700;38.270;2023-02-28T11:15:34;1.00;;;0.67;;
55346;SDS011;41218;55.700;38.270;2023-02-28T11:20:35;5.60;;;2.60;;
55346;SDS011;41218;55.700;38.270;2023-02-28T11:25:36;5.27;;;2.13;;
55346;SDS011;41218;55.700;38.270;2023-02-28T11:30:39;3.92;;;2.08;;
55346;SDS011;41218;55.700;38.270;2023-02-28T11:35:41;4.95;;;2.35;;
55346;SDS011;41218;55.700;38.270;2023-02-28T11:40:55;4.90;;;2.30;;
55346;SDS011;41218;55.700;38.270;2023-02-28T11:51:27;1.83;;;0.75;;
55346;SDS011;41218;55.700;38.270;2023-02-28T11:56:37;5.45;;;2.38;;
55346;SDS011;41218;55.700;38.270;2023-02-28T12:23:23;5.72;;;1.90;;
55346;SDS011;41218;55.700;38.270;2023-02-28T12:28:43;7.53;;;2.83;;
55346;SDS011;41218;55.700;38.270;2023-02-28T12:33:50;2.88;;;1.27;;
55346;SDS011;41218;55.700;38.270;2023-02-28T12:44:03;11.10;;;3.33;;
55346;SDS011;41218;55.700;38.270;2023-02-28T12:49:23;3.92;;;2.00;;
55346;SDS011;41218;55.700;38.270;2023-02-28T12:54:35;8.15;;;3.15;;
55346;SDS011;41218;55.700;38.270;2023-02-28T12:59:45;3.38;;;2.15;;
55346;SDS011;41218;55.700;38.270;2023-02-28T13:04:56;5.35;;;2.22;;
55346;SDS011;41218;55.700;38.270;2023-02-28T13:10:19;6.22;;;2.38;;
55346;SDS011;41218;55.700;38.270;2023-02-28T13:15:27;7.55;;;2.88;;
55346;SDS011;41218;55.700;38.270;2023-02-28T13:20:31;3.92;;;2.58;;
55346;SDS011;41218;55.700;38.270;2023-02-28T13:46:30;2.88;;;1.65;;
55346;SDS011;41218;55.700;38.270;2023-02-28T13:51:38;3.00;;;1.30;;
55346;SDS011;41218;55.700;38.270;2023-02-28T13:56:47;3.58;;;2.05;;
55346;SDS011;41218;55.700;38.270;2023-02-28T14:02:06;4.43;;;2.53;;
55346;SDS011;41218;55.700;38.270;2023-02-28T14:07:27;1.17;;;0.63;;
55346;SDS011;41218;55.700;38.270;2023-02-28T14:17:57;7.72;;;2.80;;
55346;SDS011;41218;55.700;38.270;2023-02-28T14:23:06;5.28;;;2.50;;
55346;SDS011;41218;55.700;38.270;2023-02-28T14:44:25;2.70;;;1.27;;
55346;SDS011;41218;55.700;38.270;2023-02-28T14:49:28;3.20;;;1.98;;
55346;SDS011;41218;55.700;38.270;2023-02-28T14:54:31;7.20;;;2.60;;
55346;SDS011;41218;55.700;38.270;2023-02-28T14:59:33;5.80;;;2.67;;
55346;SDS011;41218;55.700;38.270;2023-02-28T15:04:35;6.05;;;2.75;;
55346;SDS011;41218;55.700;38.270;2023-02-28T15:09:35;5.77;;;2.97;;
55346;SDS011;41218;55.700;38.270;2023-02-28T15:14:36;6.33;;;2.83;;
55346;SDS011;41218;55.700;38.270;2023-02-28T15:19:39;5.85;;;3.50;;
55346;SDS011;41218;55.700;38.270;2023-02-28T15:24:46;6.65;;;3.35;;
55346;SDS011;41218;55.700;38.270;2023-02-28T15:29:50;3.47;;;1.75;;
55346;SDS011;41218;55.700;38.270;2023-02-28T15:34:55;6.57;;;2.38;;
55346;SDS011;41218;55.700;38.270;2023-02-28T15:39:57;1.95;;;1.10;;
55346;SDS011;41218;55.700;38.270;2023-02-28T15:45:05;6.10;;;2.85;;
55346;SDS011;41218;55.700;38.270;2023-02-28T15:50:09;6.50;;;3.05;;
55346;SDS011;41218;55.700;38.270;2023-02-28T15:55:20;4.50;;;2.20;;
55346;SDS011;41218;55.700;38.270;2023-02-28T16:00:28;6.38;;;2.85;;
55346;SDS011;41218;55.700;38.270;2023-02-28T16:05:30;3.92;;;1.95;;
55346;SDS011;41218;55.700;38.270;2023-02-28T16:10:31;3.22;;;1.85;;
55346;SDS011;41218;55.700;38.270;2023-02-28T16:15:35;4.03;;;1.87;;
55346;SDS011;41218;55.700;38.270;2023-02-28T16:20:42;6.93;;;3.35;;
55346;SDS011;41218;55.700;38.270;2023-02-28T16:25:44;4.13;;;2.05;;
55346;SDS011;41218;55.700;38.270;2023-02-28T16:30:48;7.57;;;3.20;;
55346;SDS011;41218;55.700;38.270;2023-02-28T16:35:52;5.22;;;3.10;;
55346;SDS011;41218;55.700;38.270;2023-02-28T16:40:53;4.47;;;2.47;;
55346;SDS011;41218;55.700;38.270;2023-02-28T16:45:57;6.28;;;3.55;;
55346;SDS011;41218;55.700;38.270;2023-02-28T16:50:58;7.93;;;4.15;;
55346;SDS011;41218;55.700;38.270;2023-02-28T16:55:59;8.00;;;3.70;;
55346;SDS011;41218;55.700;38.270;2023-02-28T17:01:02;8.40;;;3.90;;
55346;SDS011;41218;55.700;38.270;2023-02-28T17:06:04;7.65;;;4.18;;
55346;SDS011;41218;55.700;38.270;2023-02-28T17:11:05;7.80;;;3.03;;
55346;SDS011;41218;55.700;38.270;2023-02-28T17:16:05;8.00;;;3.60;;
55346;SDS011;41218;55.700;38.270;2023-02-28T17:21:12;8.80;;;3.53;;
55346;SDS011;41218;55.700;38.270;2023-02-28T17:26:15;4.22;;;2.70;;
55346;SDS011;41218;55.700;38.270;2023-02-28T17:31:20;5.43;;;2.60;;
55346;SDS011;41218;55.700;38.270;2023-02-28T17:36:22;3.43;;;1.67;;
55346;SDS011;41218;55.700;38.270;2023-02-28T17:41:26;5.32;;;3.03;;
55346;SDS011;41218;55.700;38.270;2023-02-28T17:46:26;2.23;;;1.23;;
55346;SDS011;41218;55.700;38.270;2023-02-28T17:56:28;2.03;;;1.03;;
55346;SDS011;41218;55.700;38.270;2023-02-28T18:01:29;1.17;;;1.05;;
55346;SDS011;41218;55.700;38.270;2023-02-28T18:06:35;0.35;;;0.32;;
55346;SDS011;41218;55.700;38.270;2023-02-28T18:11:46;1.67;;;0.85;;
55346;SDS011;41218;55.700;38.270;2023-02-28T18:16:48;2.80;;;0.90;;
55346;SDS011;41218;55.700;38.270;2023-02-28T18:21:50;1.48;;;0.70;;
55346;SDS011;41218;55.700;38.270;2023-02-28T18:26:52;1.15;;;0.85;;
55346;SDS011;41218;55.700;38.270;2023-02-28T18:31:53;1.90;;;0.60;;
55346;SDS011;41218;55.700;38.270;2023-02-28T18:36:56;3.83;;;1.02;;
55346;SDS011;41218;55.700;38.270;2023-02-28T18:41:57;9.10;;;2.03;;
55346;SDS011;41218;55.700;38.270;2023-02-28T18:46:58;5.15;;;0.50;;
55346;SDS011;41218;55.700;38.270;2023-02-28T18:51:58;1.77;;;0.70;;
55346;SDS011;41218;55.700;38.270;2023-02-28T18:56:59;2.58;;;0.95;;
55346;SDS011;41218;55.700;38.270;2023-02-28T19:01:59;6.40;;;1.73;;
55346;SDS011;41218;55.700;38.270;2023-02-28T19:07:00;5.47;;;1.57;;
55346;SDS011;41218;55.700;38.270;2023-02-28T19:17:02;4.60;;;0.50;;
55346;SDS011;41218;55.700;38.270;2023-02-28T19:22:02;2.93;;;1.10;;
55346;SDS011;41218;55.700;38.270;2023-02-28T19:27:03;6.20;;;1.77;;
55346;SDS011;41218;55.700;38.270;2023-02-28T19:32:03;2.07;;;1.20;;
55346;SDS011;41218;55.700;38.270;2023-02-28T19:37:04;2.23;;;0.70;;
55346;SDS011;41218;55.700;38.270;2023-02-28T19:42:05;3.93;;;1.00;;
55346;SDS011;41218;55.700;38.270;2023-02-28T19:47:09;4.65;;;0.85;;
55346;SDS011;41218;55.700;38.270;2023-02-28T19:52:10;2.15;;;0.90;;
55346;SDS011;41218;55.700;38.270;2023-02-28T19:57:11;2.13;;;0.57;;
55346;SDS011;41218;55.700;38.270;2023-02-28T20:02:12;2.10;;;0.67;;
55346;SDS011;41218;55.700;38.270;2023-02-28T20:07:15;0.40;;;0.40;;
55346;SDS011;41218;55.700;38.270;2023-02-28T20:12:16;0.50;;;0.50;;
55346;SDS011;41218;55.700;38.270;2023-02-28T20:17:18;2.80;;;0.52;;
55346;SDS011;41218;55.700;38.270;2023-02-28T20:22:18;0.83;;;0.50;;
55346;SDS011;41218;55.700;38.270;2023-02-28T20:27:19;1.73;;;0.43;;
55346;SDS011;41218;55.700;38.270;2023-02-28T20:32:19;3.30;;;0.60;;
55346;SDS011;41218;55.700;38.270;2023-02-28T20:37:20;1.20;;;0.63;;
55346;SDS011;41218;55.700;38.270;2023-02-28T20:42:20;0.67;;;0.43;;
55346;SDS011;41218;55.700;38.270;2023-02-28T20:47:21;4.17;;;0.50;;
55346;SDS011;41218;55.700;38.270;2023-02-28T20:52:21;3.60;;;0.60;;
55346;SDS011;41218;55.700;38.270;2023-02-28T20:57:22;1.33;;;0.70;;
55346;SDS011;41218;55.700;38.270;2023-02-28T21:02:23;0.63;;;0.40;;
55346;SDS011;41218;55.700;38.270;2023-02-28T21:07:23;0.33;;;0.33;;
55346;SDS011;41218;55.700;38.270;2023-02-28T21:12:25;1.52;;;0.73;;
55346;SDS011;41218;55.700;38.270;2023-02-28T21:17:26;0.53;;;0.30;;
55346;SDS011;41218;55.700;38.270;2023-02-28T21:22:28;1.40;;;0.77;;
55346;SDS011;41218;55.700;38.270;2023-02-28T21:27:28;0.57;;;0.40;;
55346;SDS011;41218;55.700;38.270;2023-02-28T21:32:29;2.43;;;0.90;;
55346;SDS011;41218;55.700;38.270;2023-02-28T21:37:29;2.75;;;0.95;;
55346;SDS011;41218;55.700;38.270;2023-02-28T21:42:30;1.40;;;0.63;;
55346;SDS011;41218;55.700;38.270;2023-02-28T21:47:30;1.07;;;0.73;;
55346;SDS011;41218;55.700;38.270;2023-02-28T21:52:31;3.33;;;1.03;;
55346;SDS011;41218;55.700;38.270;2023-02-28T21:57:31;2.50;;;1.20;;
55346;SDS011;41218;55.700;38.270;2023-02-28T22:02:35;1.65;;;0.68;;
55346;SDS011;41218;55.700;38.270;2023-02-28T22:07:35;3.10;;;1.10;;
55346;SDS011;41218;55.700;38.270;2023-02-28T22:12:36;0.40;;;0.40;;
55346;SDS011;41218;55.700;38.270;2023-02-28T22:17:36;3.93;;;0.70;;
55346;SDS011;41218;55.700;38.270;2023-02-28T22:22:37;2.03;;;0.37;;
55346;SDS011;41218;55.700;38.270;2023-02-28T22:27:38;2.35;;;0.90;;
55346;SDS011;41218;55.700;38.270;2023-02-28T22:32:39;1.50;;;0.53;;
55346;SDS011;41218;55.700;38.270;2023-02-28T22:37:39;1.55;;;0.52;;
55346;SDS011;41218;55.700;38.270;2023-02-28T22:42:40;0.65;;;0.38;;
55346;SDS011;41218;55.700;38.270;2023-02-28T22:47:41;0.97;;;0.47;;
55346;SDS011;41218;55.700;38.270;2023-02-28T22:52:41;0.47;;;0.37;;
55346;SDS011;41218;55.700;38.270;2023-02-28T22:57:42;1.40;;;0.50;;
55346;SDS011;41218;55.700;38.270;2023-02-28T23:02:43;1.40;;;0.33;;
55346;SDS011;41218;55.700;38.270;2023-02-28T23:07:44;0.65;;;0.30;;
55346;SDS011;41218;55.700;38.270;2023-02-28T23:12:46;0.20;;;0.20;;
55346;SDS011;41218;55.700;38.270;2023-02-28T23:17:49;0.63;;;0.50;;
55346;SDS011;41218;55.700;38.270;2023-02-28T23:22:50;0.20;;;0.20;;
55346;SDS011;41218;55.700;38.270;2023-02-28T23:27:50;0.73;;;0.50;;
55346;SDS011;41218;55.700;38.270;2023-02-28T23:32:51;1.60;;;0.73;;
55346;SDS011;41218;55.700;38.270;2023-02-28T23:37:51;1.47;;;0.53;;
55346;SDS011;41218;55.700;38.270;2023-02-28T23:42:54;1.52;;;0.80;;
55346;SDS011;41218;55.700;38.270;2023-02-28T23:47:55;2.20;;;0.40;;
55346;SDS011;41218;55.700;38.270;2023-02-28T23:52:55;0.30;;;0.30;;
55346;SDS011;41218;55.700;38.270;2023-02-28T23:57:57;0.30;;;0.30;;
